sensor_id;sensor_type;location;lat;lon;timestamp;P1;durP1;ratioP1;P2;durP2;ratioP2
23402;SDS011;11874;48.228;11.684;2023-04-03T07:54:20;8.05;;;5.00;;
23402;SDS011;11874;48.228;11.684;2023-04-03T07:56:48;6.88;;;5.13;;
23402;SDS011;11874;48.228;11.684;2023-04-03T07:59:16;6.30;;;4.68;;
23402;SDS011;11874;48.228;11.684;2023-04-03T08:01:44;9.65;;;4.70;;
23402;SDS011;11874;48.228;11.684;2023-04-03T08:04:11;5.60;;;4.97;;
23402;SDS011;11874;48.228;11.684;2023-04-03T08:06:39;7.80;;;4.88;;
23402;SDS011;11874;48.228;11.684;2023-04-03T08:09:12;8.80;;;4.85;;
23402;SDS011;11874;48.228;11.684;2023-04-03T08:11:43;8.68;;;4.97;;
23402;SDS011;11874;48.228;11.684;2023-04-03T08:14:11;6.95;;;4.72;;
23402;SDS011;11874;48.228;11.684;2023-04-03T08:16:43;7.85;;;5.07;;
23402;SDS011;11874;48.228;11.684;2023-04-03T08:19:11;7.90;;;5.03;;
23402;SDS011;11874;48.228;11.684;2023-04-03T08:21:51;7.07;;;5.13;;
23402;SDS011;11874;48.228;11.684;2023-04-03T08:24:19;6.70;;;4.93;;
23402;SDS011;11874;48.228;11.684;2023-04-03T08:26:49;9.48;;;5.03;;
23402;SDS011;11874;48.228;11.684;2023-04-03T08:29:17;5.75;;;4.60;;
23402;SDS011;11874;48.228;11.684;2023-04-03T08:31:44;6.65;;;4.45;;
23402;SDS011;11874;48.228;11.684;2023-04-03T08:34:12;6.03;;;4.53;;
23402;SDS011;11874;48.228;11.684;2023-04-03T08:36:40;7.30;;;4.53;;
23402;SDS011;11874;48.228;11.684;2023-04-03T08:39:08;5.35;;;4.05;;
23402;SDS011;11874;48.228;11.684;2023-04-03T08:41:37;10.27;;;4.70;;
23402;SDS011;11874;48.228;11.684;2023-04-03T08:44:13;5.57;;;4.55;;
23402;SDS011;11874;48.228;11.684;2023-04-03T08:46:47;6.88;;;5.28;;
23402;SDS011;11874;48.228;11.684;2023-04-03T08:49:24;7.70;;;3.92;;
23402;SDS011;11874;48.228;11.684;2023-04-03T08:51:55;7.47;;;4.20;;
23402;SDS011;11874;48.228;11.684;2023-04-03T08:54:27;7.65;;;4.43;;
23402;SDS011;11874;48.228;11.684;2023-04-03T08:57:00;6.40;;;4.10;;
23402;SDS011;11874;48.228;11.684;2023-04-03T08:59:34;6.13;;;4.40;;
23402;SDS011;11874;48.228;11.684;2023-04-03T09:02:04;9.10;;;4.00;;
23402;SDS011;11874;48.228;11.684;2023-04-03T09:04:50;7.22;;;3.78;;
23402;SDS011;11874;48.228;11.684;2023-04-03T09:07:19;4.07;;;3.67;;
23402;SDS011;11874;48.228;11.684;2023-04-03T09:09:51;6.18;;;4.15;;
23402;SDS011;11874;48.228;11.684;2023-04-03T09:12:21;7.55;;;4.15;;
23402;SDS011;11874;48.228;11.684;2023-04-03T09:14:57;4.75;;;3.80;;
23402;SDS011;11874;48.228;11.684;2023-04-03T09:17:33;6.75;;;4.00;;
23402;SDS011;11874;48.228;11.684;2023-04-03T09:20:11;7.55;;;5.10;;
23402;SDS011;11874;48.228;11.684;2023-04-03T09:22:46;8.55;;;4.07;;
23402;SDS011;11874;48.228;11.684;2023-04-03T09:25:19;4.25;;;3.65;;
23402;SDS011;11874;48.228;11.684;2023-04-03T09:27:49;6.00;;;3.67;;
23402;SDS011;11874;48.228;11.684;2023-04-03T09:30:19;5.43;;;3.75;;
23402;SDS011;11874;48.228;11.684;2023-04-03T09:32:50;5.80;;;4.82;;
23402;SDS011;11874;48.228;11.684;2023-04-03T09:35:20;7.18;;;4.28;;
23402;SDS011;11874;48.228;11.684;2023-04-03T09:38:14;5.95;;;3.88;;
23402;SDS011;11874;48.228;11.684;2023-04-03T09:40:45;6.03;;;3.92;;
23402;SDS011;11874;48.228;11.684;2023-04-03T09:43:22;4.47;;;3.90;;
23402;SDS011;11874;48.228;11.684;2023-04-03T09:46:15;6.45;;;3.58;;
23402;SDS011;11874;48.228;11.684;2023-04-03T09:48:50;5.07;;;3.75;;
23402;SDS011;11874;48.228;11.684;2023-04-03T09:51:33;6.05;;;4.32;;
23402;SDS011;11874;48.228;11.684;2023-04-03T09:54:01;7.45;;;4.28;;
23402;SDS011;11874;48.228;11.684;2023-04-03T09:57:07;6.43;;;3.97;;
23402;SDS011;11874;48.228;11.684;2023-04-03T09:59:42;6.75;;;4.10;;
23402;SDS011;11874;48.228;11.684;2023-04-03T10:02:21;6.25;;;3.40;;
23402;SDS011;11874;48.228;11.684;2023-04-03T10:04:58;5.80;;;3.05;;
23402;SDS011;11874;48.228;11.684;2023-04-03T10:07:36;6.10;;;3.35;;
23402;SDS011;11874;48.228;11.684;2023-04-03T10:10:17;6.22;;;3.28;;
23402;SDS011;11874;48.228;11.684;2023-04-03T10:12:57;6.28;;;3.50;;
23402;SDS011;11874;48.228;11.684;2023-04-03T10:15:32;8.35;;;3.40;;
23402;SDS011;11874;48.228;11.684;2023-04-03T10:18:06;4.65;;;2.88;;
23402;SDS011;11874;48.228;11.684;2023-04-03T10:20:50;9.07;;;3.22;;
23402;SDS011;11874;48.228;11.684;2023-04-03T10:23:21;4.57;;;2.60;;
23402;SDS011;11874;48.228;11.684;2023-04-03T10:25:59;6.60;;;3.00;;
23402;SDS011;11874;48.228;11.684;2023-04-03T10:28:35;5.43;;;2.03;;
23402;SDS011;11874;48.228;11.684;2023-04-03T10:31:13;3.88;;;2.50;;
23402;SDS011;11874;48.228;11.684;2023-04-03T10:33:47;5.07;;;2.30;;
23402;SDS011;11874;48.228;11.684;2023-04-03T10:36:24;4.13;;;2.70;;
23402;SDS011;11874;48.228;11.684;2023-04-03T10:39:02;4.35;;;2.80;;
23402;SDS011;11874;48.228;11.684;2023-04-03T10:41:45;3.90;;;3.13;;
23402;SDS011;11874;48.228;11.684;2023-04-03T10:44:40;3.60;;;3.00;;
23402;SDS011;11874;48.228;11.684;2023-04-03T10:47:19;5.13;;;3.28;;
23402;SDS011;11874;48.228;11.684;2023-04-03T10:49:51;6.13;;;3.03;;
23402;SDS011;11874;48.228;11.684;2023-04-03T10:52:27;4.57;;;3.30;;
23402;SDS011;11874;48.228;11.684;2023-04-03T10:55:09;8.30;;;5.38;;
23402;SDS011;11874;48.228;11.684;2023-04-03T10:57:51;19.15;;;14.18;;
23402;SDS011;11874;48.228;11.684;2023-04-03T11:00:22;13.02;;;8.25;;
23402;SDS011;11874;48.228;11.684;2023-04-03T12:23:23;2.80;;;1.45;;
23402;SDS011;11874;48.228;11.684;2023-04-03T12:25:53;2.85;;;1.50;;
23402;SDS011;11874;48.228;11.684;2023-04-03T12:28:29;2.80;;;1.45;;
23402;SDS011;11874;48.228;11.684;2023-04-03T12:30:56;2.00;;;1.55;;
23402;SDS011;11874;48.228;11.684;2023-04-03T12:36:05;2.03;;;1.58;;
23402;SDS011;11874;48.228;11.684;2023-04-03T12:38:44;2.92;;;1.83;;
23402;SDS011;11874;48.228;11.684;2023-04-03T12:41:27;6.55;;;1.63;;
23402;SDS011;11874;48.228;11.684;2023-04-03T14:36:22;3.30;;;1.67;;
23402;SDS011;11874;48.228;11.684;2023-04-03T14:38:52;1.73;;;1.30;;
23402;SDS011;11874;48.228;11.684;2023-04-03T14:41:22;3.55;;;1.40;;
23402;SDS011;11874;48.228;11.684;2023-04-03T14:43:51;3.28;;;1.58;;
23402;SDS011;11874;48.228;11.684;2023-04-03T14:46:21;3.42;;;1.48;;
23402;SDS011;11874;48.228;11.684;2023-04-03T14:49:05;1.30;;;1.20;;
23402;SDS011;11874;48.228;11.684;2023-04-03T14:51:42;4.20;;;1.30;;
23402;SDS011;11874;48.228;11.684;2023-04-03T14:54:12;1.98;;;1.15;;
23402;SDS011;11874;48.228;11.684;2023-04-03T14:56:41;2.38;;;1.58;;
23402;SDS011;11874;48.228;11.684;2023-04-03T14:59:11;2.08;;;1.38;;
23402;SDS011;11874;48.228;11.684;2023-04-03T15:01:40;1.67;;;1.13;;
23402;SDS011;11874;48.228;11.684;2023-04-03T15:04:10;1.90;;;1.13;;
23402;SDS011;11874;48.228;11.684;2023-04-03T15:06:39;2.20;;;1.20;;
23402;SDS011;11874;48.228;11.684;2023-04-03T15:09:11;1.90;;;1.20;;
23402;SDS011;11874;48.228;11.684;2023-04-03T15:11:46;3.33;;;1.63;;
23402;SDS011;11874;48.228;11.684;2023-04-03T15:14:14;2.90;;;1.42;;
23402;SDS011;11874;48.228;11.684;2023-04-03T15:17:02;3.25;;;1.30;;
23402;SDS011;11874;48.228;11.684;2023-04-03T15:19:30;2.55;;;1.27;;
23402;SDS011;11874;48.228;11.684;2023-04-03T15:22:02;3.55;;;1.35;;
23402;SDS011;11874;48.228;11.684;2023-04-03T15:24:32;2.50;;;1.40;;
23402;SDS011;11874;48.228;11.684;2023-04-03T15:27:00;1.90;;;1.30;;
23402;SDS011;11874;48.228;11.684;2023-04-03T15:29:28;3.65;;;1.58;;
23402;SDS011;11874;48.228;11.684;2023-04-03T15:31:56;6.53;;;1.90;;
23402;SDS011;11874;48.228;11.684;2023-04-03T15:34:24;2.35;;;1.40;;
23402;SDS011;11874;48.228;11.684;2023-04-03T15:36:52;1.92;;;1.27;;
23402;SDS011;11874;48.228;11.684;2023-04-03T15:39:20;2.80;;;1.60;;
23402;SDS011;11874;48.228;11.684;2023-04-03T15:41:50;2.85;;;1.80;;
23402;SDS011;11874;48.228;11.684;2023-04-03T15:44:19;1.58;;;1.38;;
23402;SDS011;11874;48.228;11.684;2023-04-03T15:46:48;3.83;;;1.50;;
23402;SDS011;11874;48.228;11.684;2023-04-03T15:49:18;2.85;;;1.60;;
23402;SDS011;11874;48.228;11.684;2023-04-03T15:51:46;3.22;;;1.50;;
23402;SDS011;11874;48.228;11.684;2023-04-03T15:54:14;2.60;;;1.60;;
23402;SDS011;11874;48.228;11.684;2023-04-03T15:56:42;4.35;;;1.88;;
23402;SDS011;11874;48.228;11.684;2023-04-03T15:59:12;3.05;;;1.50;;
23402;SDS011;11874;48.228;11.684;2023-04-03T16:01:39;2.88;;;1.48;;
23402;SDS011;11874;48.228;11.684;2023-04-03T16:04:07;3.72;;;1.67;;
23402;SDS011;11874;48.228;11.684;2023-04-03T16:06:36;2.45;;;1.63;;
23402;SDS011;11874;48.228;11.684;2023-04-03T16:09:05;3.20;;;1.38;;
23402;SDS011;11874;48.228;11.684;2023-04-03T16:11:34;2.05;;;1.30;;
23402;SDS011;11874;48.228;11.684;2023-04-03T16:14:05;2.33;;;1.25;;
23402;SDS011;11874;48.228;11.684;2023-04-03T16:16:34;4.00;;;1.52;;
23402;SDS011;11874;48.228;11.684;2023-04-03T16:19:03;2.03;;;1.35;;
23402;SDS011;11874;48.228;11.684;2023-04-03T16:21:32;2.75;;;1.58;;
23402;SDS011;11874;48.228;11.684;2023-04-03T16:24:00;3.22;;;1.30;;
23402;SDS011;11874;48.228;11.684;2023-04-03T16:26:29;2.33;;;1.35;;
23402;SDS011;11874;48.228;11.684;2023-04-03T16:28:56;2.65;;;1.10;;
23402;SDS011;11874;48.228;11.684;2023-04-03T16:31:24;2.22;;;1.58;;
23402;SDS011;11874;48.228;11.684;2023-04-03T16:33:55;3.00;;;1.60;;
23402;SDS011;11874;48.228;11.684;2023-04-03T16:36:23;3.50;;;1.40;;
23402;SDS011;11874;48.228;11.684;2023-04-03T16:38:52;3.90;;;1.60;;
23402;SDS011;11874;48.228;11.684;2023-04-03T16:41:20;2.83;;;1.70;;
23402;SDS011;11874;48.228;11.684;2023-04-03T16:43:48;2.25;;;1.60;;
23402;SDS011;11874;48.228;11.684;2023-04-03T16:46:16;1.75;;;1.20;;
23402;SDS011;11874;48.228;11.684;2023-04-03T16:48:44;1.50;;;1.17;;
23402;SDS011;11874;48.228;11.684;2023-04-03T16:51:13;3.40;;;1.70;;
23402;SDS011;11874;48.228;11.684;2023-04-03T16:53:41;2.45;;;1.60;;
